Time;durP1;ratioP1;P1;durP2;ratioP2;P2;SDS_P1;SDS_P2;PMS_P1;PMS_P2;Temp;Humidity;BMP_temperature;BMP_pressure;BME280_temperature;BME280_humidity;BME280_pressure;Samples;Min_cycle;Max_cycle;Signal;HPM_P1;HPM_P2
2022/08/29 00:01:13;;;;;;;17.02;8.48;;;666.00;2432.00;;;;;;5070760;28;20017;-75
2022/08/29 00:03:40;;;;;;;18.17;9.15;;;666.00;2432.00;;;;;;5070370;28;20036;-76
2022/08/29 00:06:06;;;;;;;14.18;8.68;;;666.40;2432.00;;;;;;5070693;28;20020;-75
2022/08/29 00:08:32;;;;;;;11.10;8.70;;;666.00;2432.00;;;;;;5070559;28;20519;-76
2022/08/29 00:10:58;;;;;;;16.60;9.20;;;666.00;2432.00;;;;;;5041193;28;20040;-76
2022/08/29 00:13:24;;;;;;;23.10;9.40;;;666.10;2432.00;;;;;;5070464;28;20020;-78
2022/08/29 00:15:49;;;;;;;13.48;9.10;;;666.10;2432.00;;;;;;5070749;28;20051;-76
2022/08/29 00:18:17;;;;;;;13.27;8.50;;;666.10;2432.00;;;;;;5070395;28;20020;-76
2022/08/29 00:20:44;;;;;;;14.07;8.45;;;666.10;2432.00;;;;;;5070192;28;20108;-76
2022/08/29 00:23:10;;;;;;;14.48;8.73;;;666.10;2432.00;;;;;;5043812;28;20029;-76
2022/08/29 00:25:36;;;;;;;15.73;8.15;;;666.10;2432.00;;;;;;5071500;28;20020;-76
2022/08/29 00:28:03;;;;;;;19.65;7.95;;;666.10;2432.00;;;;;;5073701;28;20494;-76
2022/08/29 00:30:30;;;;;;;16.77;8.75;;;666.20;2432.00;;;;;;5047590;28;20047;-76
2022/08/29 00:32:56;;;;;;;15.48;8.45;;;666.10;2432.00;;;;;;5074069;28;20577;-77
2022/08/29 00:35:31;;;;;;;15.60;8.63;;;666.20;2432.00;;;;;;5073697;28;20021;-76
2022/08/29 00:37:57;;;;;;;20.08;8.60;;;666.20;2432.00;;;;;;5074035;28;20021;-76
2022/08/29 00:40:31;;;;;;;16.75;8.10;;;666.20;2432.00;;;;;;5047265;28;20073;-75
2022/08/29 00:42:57;;;;;;;14.93;8.48;;;666.20;2432.00;;;;;;5073269;28;20063;-75
2022/08/29 00:45:23;;;;;;;15.60;7.85;;;666.10;2432.00;;;;;;5073610;28;20028;-77
2022/08/29 00:47:57;;;;;;;13.10;7.80;;;666.10;2432.00;;;;;;5073607;28;20060;-76
2022/08/29 00:50:34;;;;;;;11.57;7.50;;;666.10;2432.00;;;;;;5073407;28;20016;-76
2022/08/29 00:53:02;;;;;;;11.60;7.43;;;666.10;2432.00;;;;;;5073330;28;20027;-76
2022/08/29 00:55:32;;;;;;;12.23;8.00;;;666.00;2432.00;;;;;;5070716;28;20398;-75
2022/08/29 00:58:03;;;;;;;11.13;8.18;;;666.10;2432.00;;;;;;5071577;28;20458;-77
2022/08/29 01:00:29;;;;;;;17.10;8.48;;;666.00;2432.00;;;;;;5070958;28;20024;-77
2022/08/29 01:02:55;;;;;;;13.15;8.00;;;666.00;2432.00;;;;;;5073394;28;20017;-75
2022/08/29 01:05:23;;;;;;;11.73;8.43;;;666.00;2432.00;;;;;;5044197;28;20146;-76
2022/08/29 01:07:49;;;;;;;11.63;7.68;;;665.90;2432.00;;;;;;5053037;28;20501;-75
2022/08/29 01:13:03;;;;;;;21.75;9.32;;;665.90;2432.00;;;;;;5072371;28;20032;-75
2022/08/29 01:15:30;;;;;;;14.38;8.55;;;665.90;2432.00;;;;;;5070684;28;20017;-75
2022/08/29 01:17:58;;;;;;;9.95;7.90;;;665.80;2432.00;;;;;;5072960;28;20017;-76
2022/08/29 01:20:54;;;;;;;15.90;8.43;;;665.60;2432.00;;;;;;5072743;28;20031;-75
2022/08/29 01:23:48;;;;;;;20.63;8.50;;;665.60;2432.00;;;;;;5072032;28;20062;-75
2022/08/29 01:26:13;;;;;;;13.73;7.82;;;640.90;2432.00;;;;;;5009051;28;20505;-75
2022/08/29 01:28:46;;;;;;;13.23;8.38;;;640.90;2432.00;;;;;;5011012;28;20117;-75
2022/08/29 01:31:19;;;;;;;13.15;8.07;;;640.90;2432.00;;;;;;5004393;28;20068;-75
2022/08/29 01:33:58;;;;;;;18.02;8.88;;;665.60;2432.00;;;;;;5010197;28;20116;-75
2022/08/29 01:36:31;;;;;;;12.20;7.32;;;665.60;2432.00;;;;;;5010761;28;20034;-76
2022/08/29 01:38:57;;;;;;;11.60;7.97;;;640.90;2432.00;;;;;;5011050;28;20096;-76
2022/08/29 01:41:23;;;;;;;13.23;7.60;;;640.90;2432.00;;;;;;4994141;28;20041;-76
2022/08/29 01:43:54;;;;;;;11.50;7.15;;;665.60;2432.00;;;;;;5010897;28;20027;-75
2022/08/29 01:46:31;;;;;;;12.10;7.43;;;665.60;2432.00;;;;;;5010580;28;20030;-75
2022/08/29 01:48:58;;;;;;;16.25;8.65;;;665.60;2432.00;;;;;;5008871;28;20084;-78
2022/08/29 01:51:24;;;;;;;10.07;8.02;;;640.60;2432.00;;;;;;5010663;28;20559;-76
2022/08/29 01:53:51;;;;;;;13.15;8.70;;;640.50;2432.00;;;;;;5010554;28;20188;-76
2022/08/29 01:56:25;;;;;;;12.30;8.05;;;640.30;2432.00;;;;;;4993718;28;20046;-75
2022/08/29 01:58:52;;;;;;;12.93;8.02;;;640.30;2432.00;;;;;;5008092;28;20026;-77
2022/08/29 02:01:23;;;;;;;14.10;7.85;;;640.20;2432.00;;;;;;5010713;28;20104;-75
2022/08/29 02:03:49;;;;;;;14.40;8.48;;;640.30;2432.00;;;;;;5042295;28;20413;-76
2022/08/29 02:06:14;;;;;;;15.40;8.57;;;640.20;2432.00;;;;;;5071660;28;20031;-76
2022/08/29 02:08:42;;;;;;;13.40;8.43;;;640.40;2432.00;;;;;;5072033;28;20024;-75
2022/08/29 02:11:10;;;;;;;14.82;9.05;;;640.20;2432.00;;;;;;5071831;28;20359;-76
2022/08/29 02:13:48;;;;;;;12.88;8.55;;;640.10;2432.00;;;;;;5072021;28;20039;-76
2022/08/29 02:16:14;;;;;;;16.58;8.77;;;640.00;2432.00;;;;;;5069603;28;20016;-76
2022/08/29 02:18:43;;;;;;;13.20;8.88;;;615.30;2432.00;;;;;;5071904;28;20036;-76
2022/08/29 02:21:12;;;;;;;10.65;8.10;;;640.00;2432.00;;;;;;5071518;28;20020;-76
2022/08/29 02:23:40;;;;;;;13.45;8.43;;;615.30;2432.00;;;;;;5071527;28;20094;-75
2022/08/29 02:26:07;;;;;;;12.18;8.07;;;640.00;2432.00;;;;;;5071880;28;20036;-75
2022/08/29 02:28:34;;;;;;;17.45;8.35;;;615.20;2432.00;;;;;;5071539;28;20021;-76
2022/08/29 02:31:02;;;;;;;11.07;8.50;;;615.30;2432.00;;;;;;5071886;28;20055;-77
2022/08/29 02:33:28;;;;;;;13.93;8.25;;;640.00;2432.00;;;;;;5071260;28;20055;-76
2022/08/29 02:35:54;;;;;;;15.48;8.93;;;640.00;2432.00;;;;;;5071700;28;20482;-76
2022/08/29 02:38:20;;;;;;;14.15;8.95;;;615.30;2432.00;;;;;;5071513;28;20036;-75
2022/08/29 02:40:47;;;;;;;11.43;8.52;;;640.00;2432.00;;;;;;5071610;28;20028;-76
2022/08/29 02:43:15;;;;;;;12.77;8.48;;;640.00;2432.00;;;;;;5068685;28;20065;-75
2022/08/29 02:45:42;;;;;;;12.23;8.18;;;615.30;2432.00;;;;;;5070519;28;20020;-75
2022/08/29 02:48:10;;;;;;;13.45;8.27;;;615.30;2432.00;;;;;;5053356;28;20029;-75
2022/08/29 02:50:42;;;;;;;10.45;8.00;;;615.20;2432.00;;;;;;5068838;28;20023;-75
2022/08/29 02:53:10;;;;;;;11.85;8.05;;;615.20;2432.00;;;;;;5071560;28;20036;-76
2022/08/29 02:55:36;;;;;;;14.48;8.63;;;615.20;2432.00;;;;;;5068516;28;20036;-75
2022/08/29 02:58:02;;;;;;;21.02;9.07;;;615.10;2432.00;;;;;;5071128;28;20032;-77
2022/08/29 03:00:28;;;;;;;13.93;7.78;;;615.20;2432.00;;;;;;5071146;28;20020;-76
2022/08/29 03:02:55;;;;;;;15.48;8.38;;;615.30;2432.00;;;;;;5042178;28;20466;-75
2022/08/29 03:05:26;;;;;;;10.13;7.72;;;615.30;2432.00;;;;;;5071194;28;20070;-75
2022/08/29 03:07:53;;;;;;;13.38;8.00;;;615.30;2432.00;;;;;;5070889;28;20024;-76
2022/08/29 03:10:19;;;;;;;13.43;8.38;;;640.00;2432.00;;;;;;5071476;28;20016;-75
2022/08/29 03:12:45;;;;;;;12.60;7.95;;;640.00;2432.00;;;;;;5071054;28;20025;-76
2022/08/29 03:15:11;;;;;;;16.23;7.88;;;640.10;2432.00;;;;;;5071096;28;20016;-77
2022/08/29 03:17:37;;;;;;;17.52;7.80;;;640.10;2432.00;;;;;;5070910;28;20035;-76
2022/08/29 03:20:04;;;;;;;14.02;7.90;;;640.00;2432.00;;;;;;5071039;28;20012;-76
2022/08/29 03:22:31;;;;;;;14.70;8.07;;;640.00;2432.00;;;;;;5044657;28;20025;-75
2022/08/29 03:25:01;;;;;;;13.57;7.90;;;615.20;2432.00;;;;;;5058819;28;20032;-75
2022/08/29 03:27:28;;;;;;;14.23;7.82;;;615.20;2432.00;;;;;;5071083;28;20036;-75
2022/08/29 03:29:54;;;;;;;13.75;8.25;;;615.30;2432.00;;;;;;5052910;28;20055;-75
2022/08/29 03:32:20;;;;;;;10.70;6.78;;;615.20;2432.00;;;;;;5071017;28;20044;-75
2022/08/29 03:34:47;;;;;;;14.00;7.35;;;615.20;2432.00;;;;;;5070623;28;20053;-75
2022/08/29 03:37:13;;;;;;;15.07;8.13;;;615.30;2432.00;;;;;;5070890;28;20386;-75
2022/08/29 03:39:39;;;;;;;13.15;7.57;;;615.20;2432.00;;;;;;5070885;28;20052;-75
2022/08/29 03:42:05;;;;;;;10.95;7.50;;;615.30;2432.00;;;;;;5070998;28;20044;-77
2022/08/29 03:44:36;;;;;;;14.88;8.30;;;615.30;2432.00;;;;;;5070748;28;20459;-77
2022/08/29 03:47:03;;;;;;;14.15;7.25;;;615.30;2432.00;;;;;;5068411;28;20025;-76
2022/08/29 03:49:29;;;;;;;13.88;7.80;;;640.00;2432.00;;;;;;5070965;28;20017;-75
2022/08/29 03:51:54;;;;;;;12.07;7.20;;;640.00;2432.00;;;;;;5070653;28;20103;-76
2022/08/29 03:54:21;;;;;;;10.95;8.40;;;640.00;2432.00;;;;;;5044597;28;20104;-75
2022/08/29 03:56:46;;;;;;;13.93;7.57;;;640.10;2432.00;;;;;;5071838;28;20056;-77
2022/08/29 03:59:13;;;;;;;17.85;8.52;;;640.10;2432.00;;;;;;5056828;28;20028;-77
2022/08/29 04:01:39;;;;;;;13.77;7.95;;;640.10;2432.00;;;;;;5071583;28;20081;-77
2022/08/29 04:04:05;;;;;;;17.15;8.65;;;640.10;2432.00;;;;;;5048154;28;20115;-75
2022/08/29 04:06:32;;;;;;;12.80;8.88;;;640.10;2432.00;;;;;;5074130;28;20065;-75
2022/08/29 04:08:59;;;;;;;12.20;8.30;;;640.10;2432.00;;;;;;5074406;28;20023;-78
2022/08/29 04:11:26;;;;;;;12.80;9.18;;;640.10;2432.00;;;;;;5074356;28;20028;-76
2022/08/29 04:13:53;;;;;;;12.25;8.18;;;640.20;2432.00;;;;;;5074116;28;20024;-75
2022/08/29 04:16:23;;;;;;;13.30;9.05;;;640.20;2432.00;;;;;;5074154;28;20024;-75
2022/08/29 04:18:49;;;;;;;13.23;8.55;;;640.20;2432.00;;;;;;5074049;28;20589;-76
2022/08/29 04:21:16;;;;;;;13.25;9.43;;;640.10;2432.00;;;;;;5073779;28;20198;-76
2022/08/29 04:23:42;;;;;;;15.98;9.40;;;640.10;2432.00;;;;;;5071023;28;20099;-75
2022/08/29 04:26:18;;;;;;;12.95;9.50;;;640.10;2432.00;;;;;;5074143;28;20044;-75
2022/08/29 04:28:44;;;;;;;14.32;9.98;;;640.00;2432.00;;;;;;5071669;28;20557;-75
2022/08/29 04:31:12;;;;;;;13.00;9.45;;;615.30;2432.00;;;;;;5073860;28;20017;-75
2022/08/29 04:33:39;;;;;;;16.67;9.73;;;615.30;2432.00;;;;;;5073971;28;20044;-77
2022/08/29 04:36:05;;;;;;;12.85;9.75;;;640.00;2432.00;;;;;;5073781;28;20021;-75
2022/08/29 04:38:32;;;;;;;13.35;9.93;;;640.00;2432.00;;;;;;5047776;28;20111;-75
2022/08/29 04:40:58;;;;;;;11.77;8.88;;;640.00;2432.00;;;;;;5073592;28;20036;-75
2022/08/29 04:43:24;;;;;;;13.35;10.60;;;640.00;2432.00;;;;;;5073858;28;20027;-76
2022/08/29 04:45:56;;;;;;;15.77;9.38;;;640.00;2432.00;;;;;;5073480;28;20441;-76
2022/08/29 04:48:22;;;;;;;12.35;9.45;;;640.00;2432.00;;;;;;5073883;28;20112;-78
2022/08/29 04:50:59;;;;;;;13.30;8.80;;;640.00;2432.00;;;;;;5073304;28;20017;-76
2022/08/29 04:53:26;;;;;;;15.00;9.48;;;615.30;2432.00;;;;;;5071039;28;20050;-77
2022/08/29 04:55:56;;;;;;;12.98;10.38;;;615.30;2432.00;;;;;;5046239;28;20044;-76
2022/08/29 04:58:24;;;;;;;17.98;10.07;;;615.20;2432.00;;;;;;5046895;28;20050;-77
2022/08/29 05:00:50;;;;;;;15.85;10.23;;;615.20;2432.00;;;;;;5073859;28;20490;-75
2022/08/29 05:03:16;;;;;;;13.18;9.77;;;615.20;2432.00;;;;;;5073937;28;20021;-76
2022/08/29 05:05:42;;;;;;;16.60;9.57;;;615.20;2432.00;;;;;;5066136;28;20059;-79
2022/08/29 05:08:07;;;;;;;15.15;10.00;;;615.20;2432.00;;;;;;5067138;28;20032;-77
2022/08/29 05:10:33;;;;;;;15.30;10.25;;;615.20;2432.00;;;;;;5072442;28;20021;-77
2022/08/29 05:12:59;;;;;;;15.90;9.48;;;615.20;2432.00;;;;;;5047027;28;20025;-76
2022/08/29 05:15:24;;;;;;;15.27;8.73;;;615.20;2432.00;;;;;;5073085;28;20031;-78
2022/08/29 05:17:50;;;;;;;15.93;9.82;;;615.20;2432.00;;;;;;5073340;28;20459;-77
2022/08/29 05:20:16;;;;;;;17.52;10.25;;;615.10;2432.00;;;;;;5073214;28;20024;-75
2022/08/29 05:22:42;;;;;;;15.60;10.45;;;615.10;2432.00;;;;;;5046704;28;20040;-78
2022/08/29 05:25:10;;;;;;;13.85;9.13;;;615.20;2432.00;;;;;;5072732;28;20386;-78
2022/08/29 05:27:38;;;;;;;15.20;9.80;;;615.20;2432.00;;;;;;5073546;28;20040;-75
2022/08/29 05:30:04;;;;;;;16.05;9.77;;;615.20;2432.00;;;;;;5073460;28;20021;-77
2022/08/29 05:32:30;;;;;;;16.33;10.32;;;615.20;2432.00;;;;;;5073196;28;20013;-75
2022/08/29 05:34:56;;;;;;;17.15;10.30;;;615.20;2432.00;;;;;;5073728;28;20027;-76
2022/08/29 05:37:22;;;;;;;16.58;10.52;;;615.20;2432.00;;;;;;5073078;28;20063;-78
2022/08/29 05:39:49;;;;;;;13.35;9.77;;;615.30;2432.00;;;;;;5073439;28;20067;-75
2022/08/29 05:42:16;;;;;;;15.35;10.25;;;615.20;2432.00;;;;;;5073302;28;20098;-76
2022/08/29 05:44:42;;;;;;;15.10;10.73;;;615.30;2432.00;;;;;;5049421;28;20505;-75
2022/08/29 05:47:10;;;;;;;14.95;10.20;;;615.20;2432.00;;;;;;5064359;28;20060;-76
2022/08/29 05:49:38;;;;;;;15.95;10.75;;;615.20;2432.00;;;;;;5072600;28;20021;-78
2022/08/29 05:52:05;;;;;;;16.92;9.75;;;615.10;2432.00;;;;;;5069677;28;20111;-81
2022/08/29 05:54:33;;;;;;;14.07;9.63;;;615.20;2432.00;;;;;;5073057;28;20021;-75
2022/08/29 05:56:59;;;;;;;16.33;11.50;;;615.20;2432.00;;;;;;5073107;28;20570;-75
2022/08/29 05:59:24;;;;;;;16.08;10.85;;;615.10;2432.00;;;;;;5072016;28;20100;-76
2022/08/29 06:01:50;;;;;;;22.90;10.43;;;615.20;2432.00;;;;;;5073118;28;20028;-75
2022/08/29 06:04:16;;;;;;;14.63;10.18;;;615.20;2432.00;;;;;;5072649;28;20078;-76
2022/08/29 06:06:42;;;;;;;15.57;10.63;;;615.30;2432.00;;;;;;5073002;28;20025;-77
2022/08/29 06:09:08;;;;;;;15.25;9.50;;;640.00;2432.00;;;;;;5071337;28;20017;-77
2022/08/29 06:11:34;;;;;;;17.50;11.20;;;640.00;2432.00;;;;;;5073010;28;20560;-77
2022/08/29 06:14:00;;;;;;;13.73;9.77;;;640.00;2432.00;;;;;;5054280;28;20032;-76
2022/08/29 06:16:28;;;;;;;18.33;9.75;;;640.10;2432.00;;;;;;5071940;28;20485;-74
2022/08/29 06:18:55;;;;;;;14.27;11.07;;;640.10;2432.00;;;;;;5071904;28;20025;-76
2022/08/29 06:21:21;;;;;;;19.80;10.30;;;640.10;2432.00;;;;;;5071678;28;20013;-77
2022/08/29 06:23:48;;;;;;;15.25;10.70;;;640.30;2432.00;;;;;;5072002;28;20028;-75
2022/08/29 06:26:15;;;;;;;16.08;10.10;;;640.20;2432.00;;;;;;5070870;28;20063;-76
2022/08/29 06:28:46;;;;;;;16.70;10.55;;;640.10;2432.00;;;;;;5072243;28;20033;-76
2022/08/29 06:31:21;;;;;;;15.85;10.63;;;640.10;2432.00;;;;;;5072389;28;20024;-76
2022/08/29 06:33:50;;;;;;;13.20;10.13;;;640.10;2432.00;;;;;;5054711;28;20029;-78
2022/08/29 06:36:16;;;;;;;18.52;11.13;;;640.30;2432.00;;;;;;5072650;28;20103;-78
2022/08/29 06:38:42;;;;;;;19.17;11.65;;;640.20;2432.00;;;;;;5072393;28;20017;-78
2022/08/29 06:41:11;;;;;;;15.25;10.80;;;640.30;2432.00;;;;;;5072317;28;20092;-77
2022/08/29 06:43:38;;;;;;;14.02;11.60;;;640.40;2432.00;;;;;;5034610;28;20123;-81
2022/08/29 06:46:04;;;;;;;17.50;12.95;;;640.40;2432.00;;;;;;5065730;28;20466;-79
2022/08/29 06:48:30;;;;;;;20.42;11.80;;;640.40;2432.00;;;;;;5071956;28;20134;-78
2022/08/29 06:50:56;;;;;;;16.05;11.88;;;640.40;2432.00;;;;;;5043297;28;20060;-79
2022/08/29 06:53:22;;;;;;;26.77;13.30;;;640.40;2432.00;;;;;;5068681;28;20031;-78
2022/08/29 06:55:48;;;;;;;14.43;11.55;;;640.70;2432.00;;;;;;5050710;28;20096;-76
2022/08/29 06:58:14;;;;;;;15.38;12.18;;;640.70;2432.00;;;;;;5051834;28;20104;-74
2022/08/29 07:00:42;;;;;;;16.15;11.88;;;640.70;2432.00;;;;;;5052261;28;20426;-75
2022/08/29 07:03:08;;;;;;;15.50;11.75;;;640.50;2432.00;;;;;;5052091;28;20025;-76
2022/08/29 07:05:34;;;;;;;20.85;13.93;;;640.70;2432.00;;;;;;5051890;28;20016;-76
2022/08/29 07:08:00;;;;;;;13.90;12.18;;;640.80;2432.00;;;;;;5037897;28;20034;-76
2022/08/29 07:10:26;;;;;;;20.10;13.05;;;640.90;2432.00;;;;;;5043298;28;20125;-77
2022/08/29 07:12:52;;;;;;;17.40;11.95;;;665.90;2432.00;;;;;;5046512;28;20025;-76
2022/08/29 07:15:20;;;;;;;15.88;12.68;;;665.70;2432.00;;;;;;5043862;28;20044;-76
2022/08/29 07:17:46;;;;;;;16.75;12.05;;;665.70;2432.00;;;;;;5044995;28;20382;-74
2022/08/29 07:20:13;;;;;;;16.10;11.98;;;665.80;2432.00;;;;;;5051555;28;20025;-74
2022/08/29 07:22:39;;;;;;;14.30;11.65;;;665.90;2432.00;;;;;;5051800;28;20079;-73
2022/08/29 07:25:05;;;;;;;16.10;12.05;;;665.90;2432.00;;;;;;5051440;28;20510;-75
2022/08/29 07:27:31;;;;;;;17.05;11.50;;;666.00;2432.00;;;;;;5051556;28;20402;-74
2022/08/29 07:29:59;;;;;;;13.05;11.48;;;666.10;2432.00;;;;;;5051720;28;20025;-74
2022/08/29 07:32:25;;;;;;;20.92;12.00;;;666.10;2432.00;;;;;;5055177;28;20016;-73
2022/08/29 07:34:50;;;;;;;35.97;11.80;;;666.20;2432.00;;;;;;5055708;28;20028;-73
2022/08/29 07:37:16;;;;;;;17.00;10.70;;;666.30;2432.00;;;;;;5055344;28;20025;-74
2022/08/29 07:39:42;;;;;;;18.35;11.82;;;666.40;2432.00;;;;;;5055791;28;20100;-76
2022/08/29 07:42:08;;;;;;;17.23;10.75;;;666.30;2432.00;;;;;;5053946;28;20030;-74
2022/08/29 07:44:33;;;;;;;15.50;11.30;;;666.50;2432.00;;;;;;5044972;28;20057;-74
2022/08/29 07:46:59;;;;;;;17.77;11.85;;;666.40;2432.00;;;;;;5050711;28;20083;-74
2022/08/29 07:49:27;;;;;;;18.65;10.93;;;666.40;2432.00;;;;;;5055621;28;20025;-75
2022/08/29 07:51:54;;;;;;;15.82;11.07;;;666.40;2432.00;;;;;;5055311;28;20066;-77
2022/08/29 07:54:21;;;;;;;19.35;13.75;;;666.50;2432.00;;;;;;5055126;28;20390;-75
2022/08/29 07:56:49;;;;;;;19.90;12.65;;;666.50;2432.00;;;;;;5049946;28;20053;-77
2022/08/29 07:59:17;;;;;;;16.00;12.15;;;691.20;2432.00;;;;;;5055225;28;20037;-77
2022/08/29 08:01:43;;;;;;;22.58;12.95;;;666.50;2432.00;;;;;;5055379;28;20049;-75
2022/08/29 08:04:10;;;;;;;17.75;11.63;;;666.00;2432.00;;;;;;5055117;28;20028;-74
2022/08/29 08:06:39;;;;;;;20.75;11.98;;;691.20;2432.00;;;;;;5055209;28;20528;-74
2022/08/29 08:09:06;;;;;;;19.10;10.48;;;691.20;2432.00;;;;;;5055108;28;20419;-77
2022/08/29 08:11:31;;;;;;;16.13;12.32;;;666.50;2432.00;;;;;;5055136;28;20017;-77
2022/08/29 08:13:57;;;;;;;19.20;11.75;;;666.50;2432.00;;;;;;5054939;28;20505;-77
2022/08/29 08:16:26;;;;;;;17.70;11.02;;;666.50;2432.00;;;;;;5054899;28;20478;-78
2022/08/29 08:18:53;;;;;;;18.05;10.88;;;666.50;2432.00;;;;;;5037464;28;20391;-76
2022/08/29 08:21:21;;;;;;;18.67;12.05;;;666.50;2432.00;;;;;;5054883;28;20055;-77
2022/08/29 08:23:47;;;;;;;17.90;11.68;;;666.50;2432.00;;;;;;5053608;28;20037;-77
2022/08/29 08:26:14;;;;;;;16.02;10.48;;;691.20;2432.00;;;;;;5053603;28;20563;-79
2022/08/29 08:28:41;;;;;;;16.38;10.77;;;666.20;2432.00;;;;;;5054806;28;20029;-79
2022/08/29 08:31:09;;;;;;;12.05;10.68;;;691.30;2432.00;;;;;;5054698;28;20542;-76
2022/08/29 08:33:37;;;;;;;15.60;10.38;;;691.30;2432.00;;;;;;5039639;28;20035;-76
2022/08/29 08:36:16;;;;;;;17.23;10.45;;;691.30;2432.00;;;;;;5055059;28;20017;-76
2022/08/29 08:38:43;;;;;;;14.32;10.55;;;691.40;2432.00;;;;;;5053075;28;20021;-77
2022/08/29 08:41:26;;;;;;;14.55;10.48;;;691.50;2432.00;;;;;;5054653;28;20036;-75
2022/08/29 08:43:55;;;;;;;15.50;11.88;;;691.60;2432.00;;;;;;5053036;28;20071;-77
2022/08/29 08:46:38;;;;;;;17.52;12.13;;;691.50;2432.00;;;;;;5054351;28;20021;-75
2022/08/29 08:49:21;;;;;;;15.25;12.50;;;691.60;2432.00;;;;;;5054573;28;20028;-77
2022/08/29 08:51:59;;;;;;;18.45;13.88;;;691.60;2432.00;;;;;;5054385;28;20025;-75
2022/08/29 08:54:33;;;;;;;17.92;12.90;;;691.60;2432.00;;;;;;5053989;28;20021;-76
2022/08/29 08:57:11;;;;;;;22.40;15.32;;;691.60;2432.00;;;;;;5067759;28;20056;-75
2022/08/29 08:59:44;;;;;;;22.27;12.88;;;691.60;2432.00;;;;;;5074207;28;20072;-77
2022/08/29 09:02:31;;;;;;;20.05;13.73;;;691.70;2432.00;;;;;;5063543;28;20028;-78
2022/08/29 09:05:11;;;;;;;18.90;12.98;;;691.80;2432.00;;;;;;5041717;28;20090;-79
2022/08/29 09:08:08;;;;;;;16.40;13.95;;;691.80;2432.00;;;;;;5074144;28;20036;-76
2022/08/29 09:11:18;;;;;;;19.25;14.60;;;691.80;2432.00;;;;;;5063650;28;20024;-76
2022/08/29 09:13:49;;;;;;;20.38;13.60;;;691.90;2432.00;;;;;;4992442;28;20030;-78
2022/08/29 09:16:34;;;;;;;17.48;13.90;;;691.80;2432.00;;;;;;4992317;28;20092;-77
2022/08/29 09:19:04;;;;;;;19.23;12.73;;;691.90;2432.00;;;;;;4992632;28;20033;-75
2022/08/29 09:21:38;;;;;;;18.92;14.02;;;691.90;2432.00;;;;;;4992542;28;20069;-78
2022/08/29 09:24:07;;;;;;;20.58;14.00;;;691.90;2432.00;;;;;;4983630;28;20038;-75
2022/08/29 09:26:33;;;;;;;22.02;14.55;;;691.90;2432.00;;;;;;4987928;28;20053;-80
2022/08/29 09:28:59;;;;;;;18.63;14.55;;;691.80;2432.00;;;;;;4992297;28;20157;-76
2022/08/29 09:31:26;;;;;;;20.02;13.77;;;691.80;2432.00;;;;;;4992489;28;20037;-78
2022/08/29 09:34:08;;;;;;;20.98;15.13;;;691.90;2432.00;;;;;;4992146;28;20285;-77
2022/08/29 09:36:52;;;;;;;36.00;15.63;;;691.90;2432.00;;;;;;4992438;28;20037;-78
2022/08/29 09:39:20;;;;;;;27.00;16.02;;;691.80;2432.00;;;;;;4992302;28;20431;-78
2022/08/29 09:41:58;;;;;;;25.27;15.88;;;691.80;2432.00;;;;;;4975145;28;20026;-77
2022/08/29 09:44:34;;;;;;;19.23;14.15;;;691.70;2432.00;;;;;;4977304;28;20034;-78
2022/08/29 09:47:05;;;;;;;25.38;15.98;;;691.60;2432.00;;;;;;4988030;28;20103;-77
2022/08/29 09:49:32;;;;;;;17.83;14.02;;;691.70;2432.00;;;;;;5041752;28;20033;-79
2022/08/29 09:52:16;;;;;;;24.88;15.43;;;691.70;2432.00;;;;;;5055191;28;20390;-77
2022/08/29 09:54:42;;;;;;;22.85;16.13;;;691.80;2432.00;;;;;;5072688;28;20024;-76
2022/08/29 09:57:17;;;;;;;19.95;16.92;;;691.80;2432.00;;;;;;5061833;28;20084;-77
2022/08/29 09:59:46;;;;;;;21.38;15.10;;;691.80;2432.00;;;;;;5049336;28;20098;-77
2022/08/29 10:02:25;;;;;;;24.40;15.57;;;691.90;2432.00;;;;;;5063923;28;20033;-80
2022/08/29 10:04:55;;;;;;;19.42;15.98;;;692.00;2432.00;;;;;;5059102;28;20047;-78
2022/08/29 10:07:23;;;;;;;24.25;16.08;;;;;;;;;;5054722;28;20075;-76
2022/08/29 10:09:59;;;;;;;22.95;17.25;;;716.80;2432.00;;;;;;5072598;28;20042;-77
2022/08/29 10:12:54;;;;;;;24.20;15.43;;;716.80;2432.00;;;;;;5054945;28;20021;-74
2022/08/29 10:15:41;;;;;;;17.95;14.32;;;717.00;2432.00;;;;;;5050208;28;20116;-76
2022/08/29 10:18:27;;;;;;;26.83;15.30;;;717.20;2432.00;;;;;;5068564;28;20086;-76
2022/08/29 10:21:17;;;;;;;20.58;13.50;;;717.50;2432.00;;;;;;5054153;28;20486;-76
2022/08/29 10:24:04;;;;;;;20.02;13.75;;;717.70;2432.00;;;;;;5066456;28;20032;-76
2022/08/29 10:27:14;;;;;;;17.23;13.40;;;742.50;2432.00;;;;;;5067413;28;20032;-77
2022/08/29 10:30:00;;;;;;;20.45;12.80;;;742.60;2432.00;;;;;;5055365;28;20033;-77
2022/08/29 10:32:54;;;;;;;14.02;12.30;;;742.90;2432.00;;;;;;5060185;28;20162;-77
2022/08/29 10:35:29;;;;;;;20.13;13.00;;;743.10;2432.00;;;;;;5072130;28;20020;-77
2022/08/29 10:38:03;;;;;;;;;;;743.10;2432.00;;;;;;5054983;28;20065;-79
2022/08/29 10:40:39;;;;;;;13.38;10.73;;;742.90;2432.00;;;;;;5054281;28;20427;-78
2022/08/29 10:43:42;;;;;;;19.80;11.77;;;742.90;2432.00;;;;;;5072190;28;20017;-76
2022/08/29 10:46:26;;;;;;;14.07;10.45;;;743.00;2432.00;;;;;;5033973;28;20028;-76
2022/08/29 10:49:19;;;;;;;16.25;10.52;;;743.10;2432.00;;;;;;5069320;28;20028;-75
2022/08/29 10:51:54;;;;;;;19.95;10.80;;;743.30;2432.00;;;;;;5072258;28;20024;-75
2022/08/29 10:54:26;;;;;;;16.35;11.05;;;768.10;2432.00;;;;;;5053908;28;20028;-76
2022/08/29 10:56:54;;;;;;;19.85;10.52;;;768.20;2432.00;;;;;;5050017;28;20109;-75
2022/08/29 10:59:28;;;;;;;15.55;12.65;;;768.40;2432.00;;;;;;5071801;28;20082;-76
2022/08/29 11:02:04;;;;;;;14.32;10.50;;;768.40;2432.00;;;;;;5071880;28;20024;-78
2022/08/29 11:04:46;;;;;;;13.27;10.90;;;768.60;2432.00;;;;;;5054095;28;20390;-77
2022/08/29 11:07:18;;;;;;;16.90;10.70;;;768.60;2432.00;;;;;;5071280;28;20067;-75
2022/08/29 11:09:49;;;;;;;15.93;10.90;;;768.90;2432.00;;;;;;5066883;28;20032;-78
2022/08/29 11:12:44;;;;;;;13.88;11.13;;;768.80;2432.00;;;;;;5054097;28;20021;-77
2022/08/29 11:15:21;;;;;;;15.45;11.25;;;768.80;2432.00;;;;;;5039977;28;20016;-75
2022/08/29 11:18:24;;;;;;;16.15;11.20;;;768.90;2432.00;;;;;;5040417;28;20522;-75
2022/08/29 11:21:31;;;;;;;14.93;10.85;;;768.70;2432.00;;;;;;5040059;28;20081;-78
2022/08/29 11:24:01;;;;;;;15.93;10.52;;;;;;;;;;4990122;28;20418;-77
2022/08/29 11:26:33;;;;;;;18.42;11.63;;;794.00;2432.00;;;;;;4974264;28;20038;-76
2022/08/29 11:29:21;;;;;;;16.20;10.85;;;794.20;2432.00;;;;;;4966918;28;20035;-75
2022/08/29 11:32:03;;;;;;;16.58;12.07;;;794.30;2406.40;;;;;;4986492;28;20018;-76
2022/08/29 11:34:54;;;;;;;14.90;10.55;;;794.50;2380.80;;;;;;4990250;28;20062;-76
2022/08/29 11:38:08;;;;;;;12.25;9.73;;;794.50;2406.40;;;;;;4985533;28;20027;-78
2022/08/29 11:40:50;;;;;;;13.57;10.05;;;819.20;2329.60;;;;;;4990190;28;20507;-76
2022/08/29 11:43:23;;;;;;;13.80;10.45;;;819.50;2252.80;;;;;;4990252;28;20097;-78
2022/08/29 11:45:59;;;;;;;15.50;8.95;;;819.60;2252.80;;;;;;4990114;28;20105;-76
2022/08/29 11:48:37;;;;;;;13.27;8.18;;;819.60;2227.20;;;;;;4990496;28;20050;-77
2022/08/29 11:51:32;;;;;;;13.45;9.13;;;819.90;2099.20;;;;;;4990198;28;20484;-77
2022/08/29 11:54:23;;;;;;;11.02;8.75;;;820.10;2073.60;;;;;;4973457;28;20125;-76
2022/08/29 11:57:03;;;;;;;12.88;8.55;;;820.10;2022.40;;;;;;4973512;28;20051;-77
2022/08/29 11:59:49;;;;;;;10.75;7.80;;;820.10;1945.60;;;;;;4990123;28;20037;-77
2022/08/29 12:02:30;;;;;;;13.98;7.35;;;;;;;;;;5062613;28;20474;-76
2022/08/29 12:05:05;;;;;;;12.18;7.00;;;845.10;1996.80;;;;;;5047842;28;20017;-77
2022/08/29 12:07:38;;;;;;;14.37;7.60;;;845.10;1894.40;;;;;;5064190;28;20111;-75
2022/08/29 12:10:11;;;;;;;10.65;7.38;;;845.30;1894.40;;;;;;5053067;28;20055;-76
2022/08/29 12:12:44;;;;;;;12.82;7.57;;;845.30;1971.20;;;;;;5071234;28;20029;-76
2022/08/29 12:15:36;;;;;;;9.05;7.47;;;845.40;1894.40;;;;;;5039047;28;20040;-76
2022/08/29 12:18:21;;;;;;;11.35;6.47;;;845.60;1817.60;;;;;;5034692;28;20060;-76
2022/08/29 12:20:55;;;;;;;11.32;7.20;;;845.60;1792.00;;;;;;5056699;28;20478;-77
2022/08/29 12:23:31;;;;;;;11.63;7.43;;;845.70;1792.00;;;;;;5074702;28;20033;-75
2022/08/29 12:26:04;;;;;;;11.48;7.28;;;845.70;1740.80;;;;;;5056725;28;20033;-76
2022/08/29 12:28:43;;;;;;;9.02;6.60;;;845.70;1715.20;;;;;;5056456;28;20448;-76